Time;durP1;ratioP1;P1;durP2;ratioP2;P2;SDS_P1;SDS_P2;PMS_P1;PMS_P2;Temp;Humidity;BMP_temperature;BMP_pressure;BME280_temperature;BME280_humidity;BME280_pressure;Samples;Min_cycle;Max_cycle;Signal;HPM_P1;HPM_P2
2022/09/08 00:02:17;;;;;;;8.60;3.47;;;;;;;-145.67;100.00;66521.78;4943813;28;20485;-68
2022/09/08 00:04:43;;;;;;;9.90;3.30;;;;;;;-145.67;100.00;66521.78;4943918;28;20027;-68
2022/09/08 00:07:09;;;;;;;10.07;3.50;;;;;;;-145.67;100.00;66521.78;4942534;28;20816;-68
2022/09/08 00:09:35;;;;;;;11.95;3.50;;;;;;;-145.67;100.00;66521.78;4927119;28;20034;-66
2022/09/08 00:12:03;;;;;;;8.27;3.13;;;;;;;-145.67;100.00;66521.78;4943662;28;22255;-67
2022/09/08 00:14:33;;;;;;;10.63;2.97;;;;;;;-145.67;100.00;66521.78;4943924;28;21619;-68
2022/09/08 00:17:02;;;;;;;7.20;2.70;;;;;;;-145.67;100.00;66521.78;4944475;28;20090;-67
2022/09/08 00:19:28;;;;;;;7.18;2.53;;;;;;;-145.67;100.00;66521.78;4943316;28;20059;-68
2022/09/08 00:21:53;;;;;;;6.80;2.50;;;;;;;-145.67;100.00;66521.78;4926900;28;20077;-68
2022/09/08 00:24:18;;;;;;;7.43;2.58;;;;;;;-145.67;100.00;66521.78;4942599;28;20441;-68
2022/09/08 00:26:44;;;;;;;7.22;2.30;;;;;;;-145.67;100.00;66521.78;4943128;28;20041;-68
2022/09/08 00:29:09;;;;;;;8.80;2.72;;;;;;;-145.67;100.00;66521.78;4926516;28;20063;-68
2022/09/08 00:31:39;;;;;;;6.97;2.35;;;;;;;-145.67;100.00;66521.78;4944728;28;20218;-67
2022/09/08 00:34:04;;;;;;;7.60;2.65;;;;;;;-145.67;100.00;66521.78;4942612;28;20891;-68
2022/09/08 00:36:31;;;;;;;9.20;2.80;;;;;;;-145.67;100.00;66521.78;4942411;28;20077;-68
2022/09/08 00:39:00;;;;;;;7.63;2.85;;;;;;;-145.67;100.00;66521.78;4926188;28;20515;-68
2022/09/08 00:41:27;;;;;;;10.18;3.13;;;;;;;-145.67;100.00;66521.78;4921412;28;20089;-67
2022/09/08 00:43:58;;;;;;;10.18;2.90;;;;;;;-145.67;100.00;66521.78;4943490;28;20700;-68
2022/09/08 00:46:38;;;;;;;9.40;3.03;;;;;;;-145.67;100.00;66521.78;4943906;28;20368;-68
2022/09/08 00:49:10;;;;;;;10.98;3.35;;;;;;;-145.67;100.00;66521.78;4942632;28;20448;-67
2022/09/08 00:51:39;;;;;;;10.18;3.38;;;;;;;-145.67;100.00;66521.78;4920480;28;20043;-67
2022/09/08 00:54:04;;;;;;;9.30;3.95;;;;;;;-145.67;100.00;66521.78;4925648;28;20035;-67
2022/09/08 00:56:32;;;;;;;12.40;4.72;;;;;;;-145.67;100.00;66521.78;4936639;28;20125;-67
2022/09/08 00:58:59;;;;;;;12.93;5.95;;;;;;;-145.67;100.00;66521.78;4941006;28;21969;-67
2022/09/08 01:01:24;;;;;;;19.13;8.40;;;;;;;-145.67;100.00;66521.78;4922276;28;20067;-68
2022/09/08 01:03:49;;;;;;;20.63;10.30;;;;;;;-145.67;100.00;66521.78;4942312;28;20429;-67
2022/09/08 01:14:55;;;;;;;21.33;9.88;;;;;;;-145.67;100.00;66521.78;4928354;28;20035;-67
2022/09/08 01:17:31;;;;;;;13.50;8.65;;;;;;;-145.67;100.00;66521.78;4925506;28;20042;-67
2022/09/08 01:19:58;;;;;;;15.10;7.10;;;;;;;-145.67;100.00;66521.78;4941539;28;22407;-68
2022/09/08 01:22:32;;;;;;;11.85;6.13;;;;;;;-145.67;100.00;66521.78;4940750;28;20081;-67
2022/09/08 01:25:35;;;;;;;8.90;5.28;;;;;;;-145.67;100.00;66521.78;4941479;28;20558;-67
2022/09/08 01:28:14;;;;;;;10.30;4.80;;;;;;;-145.67;100.00;66521.78;4942384;28;20051;-67
2022/09/08 01:30:46;;;;;;;7.47;4.22;;;;;;;-145.67;100.00;66521.78;4943102;28;20188;-67
2022/09/08 01:33:12;;;;;;;11.48;4.75;;;;;;;-145.67;100.00;66521.78;4920335;28;20403;-67
2022/09/08 01:35:38;;;;;;;11.57;5.18;;;;;;;-145.67;100.00;66521.78;4943012;28;20043;-68
2022/09/08 01:38:09;;;;;;;9.75;4.72;;;;;;;-145.67;100.00;66521.78;4940895;28;20531;-67
2022/09/08 01:40:38;;;;;;;10.32;4.22;;;;;;;-145.67;100.00;66521.78;4905894;28;20122;-68
2022/09/08 01:43:08;;;;;;;10.23;4.20;;;;;;;-145.67;100.00;66521.78;4942399;28;20039;-67
2022/09/08 01:45:34;;;;;;;10.75;4.00;;;;;;;-145.67;100.00;66521.78;4940444;28;20050;-68
2022/09/08 01:47:59;;;;;;;8.10;3.63;;;;;;;-145.67;100.00;66521.78;4941129;28;20047;-68
2022/09/08 01:50:25;;;;;;;9.68;4.20;;;;;;;-145.67;100.00;66521.78;4941793;28;20530;-67
2022/09/08 01:52:52;;;;;;;8.75;3.55;;;;;;;-145.67;100.00;66521.78;4925643;28;20038;-67
2022/09/08 01:55:18;;;;;;;10.93;3.90;;;;;;;-145.67;100.00;66521.78;4920000;28;20046;-66
2022/09/08 01:57:44;;;;;;;9.60;3.60;;;;;;;-145.67;100.00;66521.78;4942613;28;20050;-67
2022/09/08 02:00:10;;;;;;;9.07;3.40;;;;;;;-145.67;100.00;66521.78;4940913;28;20039;-67
2022/09/08 02:02:38;;;;;;;8.70;3.22;;;;;;;-145.67;100.00;66521.78;4941903;28;21685;-67
2022/09/08 02:05:06;;;;;;;8.05;3.28;;;;;;;-145.67;100.00;66521.78;4941664;28;20062;-66
2022/09/08 02:07:33;;;;;;;7.68;3.15;;;;;;;-145.67;100.00;66521.78;4920985;28;20666;-67
2022/09/08 02:09:58;;;;;;;6.28;2.95;;;;;;;-145.67;100.00;66521.78;4903872;28;20027;-67
2022/09/08 02:12:26;;;;;;;5.32;3.10;;;;;;;-145.67;100.00;66521.78;4946009;28;20042;-67
2022/09/08 02:14:51;;;;;;;7.97;3.42;;;;;;;-145.67;100.00;66521.78;4945335;28;20047;-67
2022/09/08 02:17:17;;;;;;;7.47;3.35;;;;;;;-145.67;100.00;66521.78;4942413;28;20035;-70
2022/09/08 02:19:43;;;;;;;8.55;3.17;;;;;;;-145.67;100.00;66521.78;4944161;28;21926;-68
2022/09/08 02:22:08;;;;;;;7.68;3.60;;;;;;;-145.67;100.00;66521.78;4945689;28;20064;-67
2022/09/08 02:24:33;;;;;;;11.35;4.10;;;;;;;-145.67;100.00;66521.78;4945259;28;20575;-67
2022/09/08 02:26:59;;;;;;;11.55;6.15;;;;;;;-145.67;100.00;66521.78;4931679;28;20415;-68
2022/09/08 02:29:24;;;;;;;12.88;5.38;;;;;;;-145.67;100.00;66521.78;4945639;28;20047;-67
2022/09/08 02:31:50;;;;;;;10.95;4.80;;;;;;;-145.67;100.00;66521.78;4940153;28;20043;-68
2022/09/08 02:34:15;;;;;;;11.10;5.18;;;;;;;-145.67;100.00;66521.78;4922668;28;20572;-67
2022/09/08 02:36:41;;;;;;;11.57;5.85;;;;;;;-145.67;100.00;66521.78;4928448;28;20184;-68
2022/09/08 02:39:06;;;;;;;10.57;5.75;;;;;;;-145.67;100.00;66521.78;4944288;28;20097;-67
2022/09/08 02:41:32;;;;;;;10.68;5.40;;;;;;;-145.67;100.00;66521.78;4928279;28;20037;-67
2022/09/08 02:44:02;;;;;;;12.60;4.97;;;;;;;-145.67;100.00;66521.78;4944373;28;20059;-67
2022/09/08 02:46:27;;;;;;;13.40;5.35;;;;;;;-145.67;100.00;66521.78;4944747;28;20382;-67
2022/09/08 02:48:55;;;;;;;11.13;5.28;;;;;;;-145.67;100.00;66521.78;4944612;28;20042;-67
2022/09/08 02:51:26;;;;;;;13.32;6.35;;;;;;;-145.67;100.00;66521.78;4928415;28;20038;-67
2022/09/08 02:53:53;;;;;;;12.25;6.30;;;;;;;-145.67;100.00;66521.78;4912290;28;20039;-68
2022/09/08 02:56:18;;;;;;;11.43;5.05;;;;;;;-145.67;100.00;66521.78;4911779;28;20047;-66
2022/09/08 02:58:46;;;;;;;10.88;5.45;;;;;;;-145.67;100.00;66521.78;4945181;28;20093;-66
2022/09/08 03:01:11;;;;;;;10.63;5.05;;;;;;;-145.67;100.00;66521.78;4944399;28;20155;-67
2022/09/08 03:03:39;;;;;;;12.25;5.63;;;;;;;-145.67;100.00;66521.78;4945350;28;20656;-67
2022/09/08 03:06:05;;;;;;;15.52;6.40;;;;;;;-145.67;100.00;66521.78;4927474;28;20046;-67
2022/09/08 03:08:33;;;;;;;16.20;6.82;;;;;;;-145.67;100.00;66521.78;4943789;28;20047;-68
2022/09/08 03:10:59;;;;;;;16.45;7.63;;;;;;;-145.67;100.00;66521.78;4923171;28;20046;-66
2022/09/08 03:13:29;;;;;;;17.00;8.07;;;;;;;-145.67;100.00;66521.78;4928370;28;20492;-67
2022/09/08 03:15:54;;;;;;;16.63;7.38;;;;;;;-145.67;100.00;66521.78;4922958;28;20105;-68
2022/09/08 03:18:22;;;;;;;16.10;7.80;;;;;;;-145.67;100.00;66521.78;4944581;28;20035;-67
2022/09/08 03:21:01;;;;;;;16.60;7.93;;;;;;;-145.67;100.00;66521.78;4944401;28;20034;-66
2022/09/08 03:23:27;;;;;;;18.00;8.50;;;;;;;-145.67;100.00;66521.78;4922699;28;20084;-67
2022/09/08 03:25:52;;;;;;;19.00;8.63;;;;;;;-145.67;100.00;66521.78;4944153;28;20520;-67
2022/09/08 03:28:23;;;;;;;21.00;9.88;;;;;;;-145.67;100.00;66521.78;4943274;28;20146;-67
2022/09/08 03:30:49;;;;;;;21.40;8.95;;;;;;;-145.67;100.00;66521.78;4943916;28;20058;-66
2022/09/08 03:33:15;;;;;;;20.70;9.10;;;;;;;-145.67;100.00;66521.78;4942820;28;20038;-67
2022/09/08 03:35:41;;;;;;;21.45;8.98;;;;;;;-145.67;100.00;66521.78;4943104;28;20496;-66
2022/09/08 03:38:07;;;;;;;20.65;9.98;;;;;;;-145.67;100.00;66521.78;4936287;28;20054;-67
2022/09/08 03:40:38;;;;;;;21.48;10.73;;;;;;;-145.67;100.00;66521.78;4943689;28;20039;-67
2022/09/08 03:43:06;;;;;;;19.60;10.13;;;;;;;-145.67;100.00;66521.78;4921458;28;20039;-67
2022/09/08 03:45:31;;;;;;;19.30;9.65;;;;;;;-145.67;100.00;66521.78;4927992;28;20547;-67
2022/09/08 03:47:57;;;;;;;20.05;11.05;;;;;;;-145.67;100.00;66521.78;4943278;28;20053;-67
2022/09/08 03:50:27;;;;;;;21.90;11.63;;;;;;;-145.67;100.00;66521.78;4943447;28;20041;-67
2022/09/08 03:52:52;;;;;;;25.85;12.15;;;;;;;-145.67;100.00;66521.78;4922392;28;20042;-68
2022/09/08 03:55:18;;;;;;;33.65;15.45;;;;;;;-145.67;100.00;66521.78;4941623;28;20157;-67
2022/09/08 03:57:46;;;;;;;37.38;19.80;;;;;;;-145.67;100.00;66521.78;4927440;28;20043;-68
2022/09/08 04:00:12;;;;;;;41.92;18.60;;;;;;;-145.67;100.00;66521.78;4927744;28;20045;-68
2022/09/08 04:02:38;;;;;;;38.85;19.40;;;;;;;-145.67;100.00;66521.78;4943495;28;20129;-69
2022/09/08 04:05:06;;;;;;;33.08;16.92;;;;;;;-145.67;100.00;66521.78;4937975;28;20038;-68
2022/09/08 04:07:34;;;;;;;24.70;14.70;;;;;;;-145.67;100.00;66521.78;4926386;28;20066;-68
2022/09/08 04:10:01;;;;;;;28.58;14.95;;;;;;;-145.67;100.00;66521.78;4942524;28;20341;-68
2022/09/08 04:12:26;;;;;;;27.60;17.98;;;;;;;-145.67;100.00;66521.78;4942710;28;20035;-70
2022/09/08 04:14:57;;;;;;;27.20;16.90;;;;;;;-145.67;100.00;66521.78;4942880;28;20038;-69
2022/09/08 04:17:23;;;;;;;29.85;17.40;;;;;;;-145.67;100.00;66521.78;4922078;28;20069;-70
2022/09/08 04:19:50;;;;;;;25.40;16.50;;;;;;;-145.67;100.00;66521.78;4927074;28;20031;-69
2022/09/08 04:22:20;;;;;;;23.40;14.65;;;;;;;-145.67;100.00;66521.78;4942361;28;20039;-68
2022/09/08 04:24:45;;;;;;;29.10;17.77;;;;;;;-145.67;100.00;66521.78;4936263;28;20498;-69
2022/09/08 04:27:11;;;;;;;25.90;16.95;;;;;;;-145.67;100.00;66521.78;4938287;28;20042;-68
2022/09/08 04:29:39;;;;;;;25.92;17.67;;;;;;;-145.67;100.00;66521.78;4943998;28;20130;-69
2022/09/08 04:32:08;;;;;;;22.45;17.08;;;;;;;-145.67;100.00;66521.78;4922022;28;21819;-68
2022/09/08 04:34:34;;;;;;;26.00;15.90;;;;;;;-145.67;100.00;66521.78;4941078;28;20038;-68
2022/09/08 04:37:04;;;;;;;28.92;18.52;;;;;;;-145.67;100.00;66521.78;4943702;28;20031;-68
2022/09/08 04:39:30;;;;;;;30.38;18.67;;;;;;;-145.67;100.00;66521.78;4941863;28;20465;-69
2022/09/08 04:41:58;;;;;;;29.80;19.30;;;;;;;-145.67;100.00;66521.78;4942979;28;20031;-68
2022/09/08 04:44:26;;;;;;;36.50;21.00;;;;;;;-145.67;100.00;66521.78;4942812;28;20057;-68
2022/09/08 04:46:51;;;;;;;37.83;20.98;;;;;;;-145.67;100.00;66521.78;4943053;28;20495;-67
2022/09/08 04:49:17;;;;;;;41.22;23.13;;;;;;;-145.67;100.00;66521.78;4925786;28;20038;-69
2022/09/08 04:51:45;;;;;;;35.70;19.25;;;;;;;-145.67;100.00;66521.78;4942214;28;20602;-67
2022/09/08 04:54:11;;;;;;;29.98;18.20;;;;;;;-145.67;100.00;66521.78;4942259;28;20041;-68
2022/09/08 04:56:36;;;;;;;39.85;22.02;;;;;;;-145.67;100.00;66521.78;4905234;28;20475;-68
2022/09/08 04:59:04;;;;;;;39.60;23.75;;;;;;;-145.67;100.00;66521.78;4942103;28;20038;-67
2022/09/08 05:01:32;;;;;;;39.70;20.52;;;;;;;-145.67;100.00;66521.78;4921579;28;20045;-70
2022/09/08 05:04:00;;;;;;;46.97;23.08;;;;;;;-145.67;100.00;66521.78;4937117;28;21699;-67
2022/09/08 05:06:26;;;;;;;33.60;17.92;;;;;;;-145.67;100.00;66521.78;4921220;28;20332;-68
2022/09/08 05:08:55;;;;;;;33.95;19.65;;;;;;;-145.67;100.00;66521.78;4941145;28;20838;-68
2022/09/08 05:11:20;;;;;;;31.45;16.92;;;;;;;-145.67;100.00;66521.78;4937895;28;20522;-68
2022/09/08 05:13:49;;;;;;;30.92;16.30;;;;;;;-145.67;100.00;66521.78;4909663;28;20039;-69
2022/09/08 05:16:17;;;;;;;29.50;16.90;;;;;;;-145.67;100.00;66521.78;4926001;28;20039;-69
2022/09/08 05:18:49;;;;;;;24.40;15.43;;;;;;;-145.67;100.00;66521.78;4941779;28;20039;-68
2022/09/08 05:21:15;;;;;;;28.42;16.77;;;;;;;-145.67;100.00;66521.78;4919789;28;20447;-68
2022/09/08 05:23:41;;;;;;;29.08;17.20;;;;;;;-145.67;100.00;66521.78;4942565;28;20616;-68
2022/09/08 05:26:13;;;;;;;30.48;16.92;;;;;;;-145.67;100.00;66521.78;4943227;28;20133;-68
2022/09/08 05:28:39;;;;;;;32.47;17.20;;;;;;;-145.67;100.00;66521.78;4941171;28;20496;-69
2022/09/08 05:31:06;;;;;;;30.92;16.63;;;;;;;-145.67;100.00;66521.78;4920897;28;20093;-68
2022/09/08 05:33:32;;;;;;;29.65;17.15;;;;;;;-145.67;100.00;66521.78;4942143;28;20071;-69
2022/09/08 05:36:03;;;;;;;36.90;19.98;;;;;;;-145.67;100.00;66521.78;4942520;28;20391;-70
2022/09/08 05:38:28;;;;;;;38.07;21.07;;;;;;;-145.67;100.00;66521.78;4942239;28;20141;-70
2022/09/08 05:40:58;;;;;;;40.38;25.00;;;;;;;-145.67;100.00;66521.78;4943014;28;20038;-71
2022/09/08 05:43:27;;;;;;;53.05;22.75;;;;;;;-145.67;100.00;66521.78;4927183;28;20094;-71
2022/09/08 05:45:52;;;;;;;43.58;22.15;;;;;;;-145.67;100.00;66521.78;4945384;28;20081;-72
2022/09/08 05:48:18;;;;;;;45.20;22.40;;;;;;;-145.67;100.00;66521.78;4932633;28;20050;-73
2022/09/08 05:50:44;;;;;;;41.20;21.77;;;;;;;-145.67;100.00;66521.78;4953298;28;20373;-74
2022/09/08 05:53:10;;;;;;;45.08;23.33;;;;;;;-145.67;100.00;66521.78;4943860;28;20041;-74
2022/09/08 05:55:40;;;;;;;39.22;21.23;;;;;;;-145.67;100.00;66521.78;4946125;28;20046;-74
2022/09/08 05:58:10;;;;;;;36.38;21.92;;;;;;;-145.67;100.00;66521.78;4960293;28;20039;-72
2022/09/08 06:00:37;;;;;;;41.63;23.02;;;;;;;-145.67;100.00;66521.78;4948664;28;20041;-73
2022/09/08 06:03:03;;;;;;;44.22;23.65;;;;;;;-145.67;100.00;66521.78;4949369;28;20388;-74
2022/09/08 06:05:28;;;;;;;40.58;21.58;;;;;;;-145.67;100.00;66521.78;4963039;28;20027;-75
2022/09/08 06:07:54;;;;;;;37.75;19.50;;;;;;;-145.67;100.00;66521.78;4951553;28;20038;-74
2022/09/08 06:10:20;;;;;;;37.45;20.35;;;;;;;-145.67;100.00;66521.78;4954000;28;20036;-74
2022/09/08 06:12:45;;;;;;;30.13;15.73;;;;;;;-145.67;100.00;66521.78;4953045;28;20038;-75
2022/09/08 06:15:11;;;;;;;29.02;16.90;;;;;;;-145.67;100.00;66521.78;4948425;28;20484;-74
2022/09/08 06:17:39;;;;;;;26.27;15.10;;;;;;;-145.67;100.00;66521.78;4929068;28;20061;-74
2022/09/08 06:20:05;;;;;;;21.33;12.38;;;;;;;-145.67;100.00;66521.78;4945652;28;20070;-72
2022/09/08 06:22:34;;;;;;;21.15;11.73;;;;;;;-145.67;100.00;66521.78;4948972;28;20555;-73
2022/09/08 06:25:00;;;;;;;21.85;10.60;;;;;;;-145.67;100.00;66521.78;4933862;28;20043;-74
2022/09/08 06:27:40;;;;;;;18.27;10.25;;;;;;;-145.67;100.00;66521.78;4936001;28;20404;-72
2022/09/08 06:30:11;;;;;;;24.10;11.13;;;;;;;-145.67;100.00;66521.78;4950516;28;20125;-75
2022/09/08 06:32:52;;;;;;;23.52;12.63;;;;;;;-145.67;100.00;66521.78;4943448;28;20046;-75
2022/09/08 06:35:27;;;;;;;17.92;11.27;;;;;;;-145.67;100.00;66521.78;4964360;28;20027;-76
2022/09/08 06:37:59;;;;;;;22.00;10.93;;;;;;;-145.67;100.00;66521.78;4960986;28;20038;-76
2022/09/08 06:40:42;;;;;;;26.88;13.82;;;;;;;-145.67;100.00;66521.78;4959149;28;20571;-76
2022/09/08 06:43:31;;;;;;;28.48;15.95;;;;;;;-145.67;100.00;66521.78;4961186;28;20028;-76
2022/09/08 06:45:59;;;;;;;25.85;15.93;;;;;;;-145.67;100.00;66521.78;4950690;28;20031;-78
2022/09/08 06:48:31;;;;;;;32.42;15.95;;;;;;;-145.67;100.00;66521.78;4952334;28;20122;-77
2022/09/08 06:51:08;;;;;;;25.60;13.35;;;;;;;-145.67;100.00;66521.78;4952356;28;20134;-76
2022/09/08 06:53:37;;;;;;;23.48;13.73;;;;;;;-145.67;100.00;66521.78;4930971;28;20448;-75
2022/09/08 06:56:15;;;;;;;18.35;9.80;;;;;;;-145.67;100.00;66521.78;4946853;28;20563;-77
2022/09/08 06:58:46;;;;;;;13.88;9.07;;;;;;;-145.67;100.00;66521.78;4941271;29;20482;-75
2022/09/08 07:01:21;;;;;;;20.23;10.00;;;;;;;-145.67;100.00;66521.78;4946448;28;20036;-76
2022/09/08 07:04:20;;;;;;;17.52;12.02;;;;;;;-145.67;100.00;66521.78;4942534;28;20027;-76
2022/09/08 07:06:56;;;;;;;33.33;19.38;;;;;;;-145.67;100.00;66521.78;4950062;28;20039;-77
2022/09/08 07:09:33;;;;;;;42.95;23.58;;;;;;;-145.67;100.00;66521.78;4947981;29;20044;-78
2022/09/08 07:12:32;;;;;;;39.33;23.52;;;;;;;-145.67;100.00;66521.78;4941934;28;20042;-77
2022/09/08 07:15:04;;;;;;;40.90;28.42;;;;;;;-145.67;100.00;66521.78;4941889;28;20043;-76
2022/09/08 07:17:37;;;;;;;44.35;28.15;;;;;;;-145.67;100.00;66521.78;4939952;29;20038;-77
2022/09/08 07:20:08;;;;;;;46.70;31.33;;;;;;;-145.67;100.00;66521.78;4925559;28;20264;-76
2022/09/08 07:22:51;;;;;;;36.35;24.33;;;;;;;-145.67;100.00;66521.78;4934468;28;20039;-76
2022/09/08 07:25:19;;;;;;;13.57;8.00;;;;;;;-145.67;100.00;66521.78;4936187;29;20058;-77
2022/09/08 07:27:49;;;;;;;12.95;7.32;;;;;;;-145.67;100.00;66521.78;4935032;28;20118;-76
2022/09/08 07:30:18;;;;;;;12.75;6.88;;;;;;;-145.67;100.00;66521.78;4917655;28;20127;-76
2022/09/08 07:32:56;;;;;;;13.95;7.40;;;;;;;-145.67;100.00;66521.78;4926150;28;20518;-76
2022/09/08 07:35:30;;;;;;;15.10;8.40;;;;;;;-145.67;100.00;66521.78;4942533;28;20528;-75
2022/09/08 07:38:01;;;;;;;26.88;18.63;;;;;;;-145.67;100.00;66521.78;4925515;28;20567;-75
2022/09/08 07:40:48;;;;;;;44.92;27.92;;;;;;;-145.67;100.00;66521.78;4949851;28;20035;-75
2022/09/08 07:43:16;;;;;;;27.73;14.63;;;;;;;-145.67;100.00;66521.78;4953499;28;20031;-74
2022/09/08 07:45:47;;;;;;;29.40;17.80;;;;;;;-145.67;100.00;66521.78;4944271;28;20061;-75
2022/09/08 07:48:38;;;;;;;44.58;33.67;;;;;;;-145.67;100.00;66521.78;4928081;28;20328;-77
2022/09/08 07:51:10;;;;;;;33.70;23.15;;;;;;;-145.67;100.00;66521.78;4926255;28;20169;-77
2022/09/08 07:54:01;;;;;;;44.47;30.80;;;;;;;-145.67;100.00;66521.78;4944664;28;20054;-75
2022/09/08 07:56:42;;;;;;;27.92;20.88;;;;;;;-145.67;100.00;66521.78;4935122;28;21723;-74
2022/09/08 07:59:27;;;;;;;34.97;22.70;;;;;;;-145.67;100.00;66521.78;4919238;28;20054;-75
2022/09/08 08:01:58;;;;;;;43.20;28.35;;;;;;;-145.67;100.00;66521.78;4920261;28;20483;-75
2022/09/08 08:04:47;;;;;;;38.97;28.95;;;;;;;-145.67;100.00;66521.78;4924643;29;20670;-74
2022/09/08 08:07:21;;;;;;;39.35;25.25;;;;;;;-145.67;100.00;66521.78;4924603;29;20567;-74
2022/09/08 08:10:09;;;;;;;44.33;27.15;;;;;;;-145.67;100.00;66521.78;4914295;28;20408;-74
2022/09/08 08:13:08;;;;;;;41.20;31.17;;;;;;;-145.67;100.00;66521.78;4932245;28;20039;-74
2022/09/08 08:15:47;;;;;;;49.80;33.05;;;;;;;-145.67;100.00;66521.78;4918916;28;20416;-74
2022/09/08 08:18:40;;;;;;;37.00;25.08;;;;;;;-145.67;100.00;66521.78;4939191;28;20094;-75
2022/09/08 08:21:19;;;;;;;52.38;33.75;;;;;;;-145.67;100.00;66521.78;4922079;28;20127;-74
2022/09/08 08:24:12;;;;;;;46.38;33.65;;;;;;;-145.67;100.00;66521.78;4933932;28;20043;-74
2022/09/08 08:26:52;;;;;;;45.58;32.17;;;;;;;-145.67;100.00;66521.78;4924611;29;20971;-74
2022/09/08 08:29:20;;;;;;;33.55;23.02;;;;;;;-145.67;100.00;66521.78;4915456;28;20043;-73
2022/09/08 08:31:53;;;;;;;38.13;25.25;;;;;;;-145.67;100.00;66521.78;4934342;28;20094;-73
2022/09/08 08:34:30;;;;;;;53.10;34.30;;;;;;;-145.67;100.00;66521.78;4917751;29;20039;-73
2022/09/08 08:37:00;;;;;;;55.05;32.63;;;;;;;-145.67;100.00;66521.78;4914400;28;20122;-73
2022/09/08 08:39:26;;;;;;;42.90;30.13;;;;;;;-145.67;100.00;66521.78;4922948;29;21935;-73
2022/09/08 08:42:29;;;;;;;39.25;28.10;;;;;;;-145.67;100.00;66521.78;4914121;28;20252;-74
2022/09/08 08:45:21;;;;;;;34.72;24.77;;;;;;;-145.67;100.00;66521.78;4939221;28;20031;-73
2022/09/08 08:48:17;;;;;;;30.20;21.73;;;;;;;-145.67;100.00;66521.78;4922985;28;20440;-73
2022/09/08 08:51:07;;;;;;;43.00;26.13;;;;;;;-145.67;100.00;66521.78;4938547;28;20508;-73
2022/09/08 08:54:04;;;;;;;30.50;20.92;;;;;;;-145.67;100.00;66521.78;4931159;28;20230;-73
2022/09/08 08:56:35;;;;;;;37.80;23.55;;;;;;;-145.67;100.00;66521.78;4911950;28;20046;-74
2022/09/08 08:59:28;;;;;;;28.42;20.23;;;;;;;-145.67;100.00;66521.78;4924322;28;20632;-73
2022/09/08 09:02:03;;;;;;;29.23;20.30;;;;;;;-145.67;100.00;66521.78;4924252;29;20090;-72
2022/09/08 09:04:59;;;;;;;33.88;23.63;;;;;;;-145.67;100.00;66521.78;4923492;28;20117;-72
2022/09/08 09:07:46;;;;;;;36.20;21.55;;;;;;;-145.67;100.00;66521.78;4922141;29;20055;-73
2022/09/08 09:10:22;;;;;;;39.90;21.83;;;;;;;-145.67;100.00;66521.78;4896645;28;20097;-72
2022/09/08 09:13:15;;;;;;;34.88;21.83;;;;;;;-145.67;100.00;66521.78;4924655;28;20510;-73
2022/09/08 09:16:08;;;;;;;32.80;20.48;;;;;;;-145.67;100.00;66521.78;4924367;29;20607;-72
2022/09/08 09:18:59;;;;;;;32.65;18.50;;;;;;;-145.67;100.00;66521.78;4923124;28;20459;-72
2022/09/08 09:21:34;;;;;;;37.90;21.80;;;;;;;-145.67;100.00;66521.78;4923210;28;20038;-71
2022/09/08 09:24:01;;;;;;;32.53;20.55;;;;;;;-145.67;100.00;66521.78;4914549;28;20043;-72
2022/09/08 09:26:31;;;;;;;27.38;17.90;;;;;;;-145.67;100.00;66521.78;4931230;28;20035;-72
2022/09/08 09:29:12;;;;;;;30.17;17.52;;;;;;;-145.67;100.00;66521.78;4938055;28;20110;-71
2022/09/08 09:32:16;;;;;;;17.70;14.63;;;;;;;-145.67;100.00;66521.78;4922997;28;20118;-71
2022/09/08 09:35:10;;;;;;;13.25;9.88;;;;;;;-145.67;100.00;66521.78;4937661;28;20043;-71
2022/09/08 09:37:54;;;;;;;13.55;10.52;;;;;;;-145.67;100.00;66521.78;4923570;28;20043;-72
2022/09/08 09:41:01;;;;;;;19.70;10.52;;;;;;;-145.67;100.00;66521.78;4917293;29;20059;-71
2022/09/08 09:44:12;;;;;;;13.25;10.30;;;;;;;-145.67;100.00;66521.78;4906793;28;21836;-72
2022/09/08 09:46:57;;;;;;;14.13;7.65;;;;;;;-145.67;100.00;66521.78;4924931;28;20154;-71
2022/09/08 09:49:38;;;;;;;12.20;8.27;;;;;;;-145.67;100.00;66521.78;4923345;28;20497;-71
2022/09/08 09:52:26;;;;;;;10.40;8.30;;;;;;;-145.67;100.00;66521.78;4923940;29;21983;-70
2022/09/08 09:55:04;;;;;;;9.52;6.47;;;;;;;-145.67;100.00;66521.78;4937159;28;20417;-70
2022/09/08 09:57:42;;;;;;;11.57;7.70;;;;;;;-145.67;100.00;66521.78;4948647;28;20043;-71
2022/09/08 10:00:14;;;;;;;11.93;6.50;;;;;;;-145.67;100.00;66521.78;4948409;28;20046;-70
2022/09/08 10:03:20;;;;;;;8.50;6.22;;;;;;;-145.67;100.00;66521.78;4950498;28;20085;-70
2022/09/08 10:06:26;;;;;;;10.20;7.80;;;;;;;-145.67;100.00;66521.78;4952846;28;20074;-71
2022/09/08 10:08:58;;;;;;;10.02;7.18;;;;;;;-145.67;100.00;66521.78;4954062;28;20045;-70
2022/09/08 10:12:12;;;;;;;10.15;7.82;;;;;;;-145.67;100.00;66521.78;4955217;28;20511;-70
2022/09/08 10:14:47;;;;;;;;;;;;;;;-145.67;100.00;66521.78;4948350;28;20118;-69
2022/09/08 10:17:49;;;;;;;8.88;5.88;;;;;;;-145.67;100.00;66521.78;4947846;28;20585;-70
2022/09/08 10:20:52;;;;;;;9.88;6.18;;;;;;;-145.67;100.00;66521.78;4946242;28;20286;-68
2022/09/08 10:23:48;;;;;;;10.38;6.47;;;;;;;-145.67;100.00;66521.78;4944657;28;20035;-68
2022/09/08 10:26:25;;;;;;;9.15;6.97;;;;;;;-145.67;100.00;66521.78;4947543;28;20116;-67
2022/09/08 10:29:07;;;;;;;13.23;5.68;;;;;;;-145.67;100.00;66521.78;4943665;28;20054;-68
2022/09/08 10:31:54;;;;;;;10.55;6.53;;;;;;;-145.67;100.00;66521.78;4927002;28;20026;-66
2022/09/08 10:34:37;;;;;;;7.93;4.40;;;;;;;-145.67;100.00;66521.78;4946332;28;20066;-67
2022/09/08 10:37:11;;;;;;;7.47;3.55;;;;;;;-145.67;100.00;66521.78;4948013;28;20054;-66
2022/09/08 10:39:47;;;;;;;10.30;3.70;;;;;;;-145.67;100.00;66521.78;4932552;28;20094;-66
2022/09/08 10:42:35;;;;;;;8.88;3.40;;;;;;;-145.67;100.00;66521.78;4948414;28;20030;-68
2022/09/08 10:45:00;;;;;;;9.98;5.53;;;;;;;-145.67;100.00;66521.78;4943348;28;20062;-67
2022/09/08 10:48:19;;;;;;;8.93;3.72;;;;;;;-145.67;100.00;66521.78;4946808;28;20109;-68
2022/09/08 10:50:52;;;;;;;8.88;3.20;;;;;;;-145.67;100.00;66521.78;4832695;29;20038;-68
2022/09/08 10:53:41;;;;;;;7.18;3.00;;;;;;;-145.67;100.00;66521.78;4929418;28;20074;-67
2022/09/08 10:56:06;;;;;;;11.18;2.63;;;;;;;-145.67;100.00;66521.78;4946491;28;20051;-66
2022/09/08 10:58:38;;;;;;;7.13;2.05;;;;;;;-145.67;100.00;66521.78;4945202;28;20030;-67
2022/09/08 11:01:09;;;;;;;8.20;2.10;;;;;;;-145.67;100.00;66521.78;4944814;28;20038;-68
2022/09/08 11:03:52;;;;;;;10.80;2.30;;;;;;;-145.67;100.00;66521.78;4936057;28;20149;-67
2022/09/08 11:06:43;;;;;;;12.05;2.80;;;;;;;-145.67;100.00;66521.78;4945273;28;20062;-69
2022/09/08 11:09:24;;;;;;;7.30;2.33;;;;;;;-145.67;100.00;66521.78;4943833;28;20058;-68
2022/09/08 11:11:52;;;;;;;8.52;1.98;;;;;;;-145.67;100.00;66521.78;4944000;28;20580;-67
2022/09/08 11:14:34;;;;;;;8.85;2.38;;;;;;;-145.67;100.00;66521.78;4944747;28;20033;-67
2022/09/08 11:17:26;;;;;;;8.57;2.22;;;;;;;-145.67;100.00;66521.78;4909407;28;20046;-67
2022/09/08 11:20:02;;;;;;;8.90;2.17;;;;;;;-145.67;100.00;66521.78;4924861;28;20032;-68
2022/09/08 11:22:34;;;;;;;8.30;2.00;;;;;;;-145.67;100.00;66521.78;4921816;28;20038;-66
2022/09/08 11:25:12;;;;;;;5.38;1.63;;;;;;;-145.67;100.00;66521.78;4944028;28;20279;-66
2022/09/08 11:27:39;;;;;;;6.03;1.85;;;;;;;-145.67;100.00;66521.78;4924711;28;20547;-66
2022/09/08 11:30:22;;;;;;;14.18;1.90;;;;;;;-145.67;100.00;66521.78;4944446;28;20285;-68
2022/09/08 11:33:19;;;;;;;6.82;1.70;;;;;;;-145.67;100.00;66521.78;4944529;28;20035;-65
2022/09/08 11:36:19;;;;;;;7.40;2.00;;;;;;;-145.67;100.00;66521.78;4933825;28;20174;-64
2022/09/08 11:38:57;;;;;;;6.22;1.80;;;;;;;-145.67;100.00;66521.78;4922319;28;20590;-65